createdAt,value
2022-08-09T00:02:56.041Z,3.30
2022-08-09T00:06:23.792Z,3.50
2022-08-09T00:09:51.565Z,3.30
2022-08-09T00:13:19.013Z,2.70
2022-08-09T00:16:46.825Z,3.20
2022-08-09T00:20:15.562Z,2.80
2022-08-09T00:23:55.578Z,2.90
2022-08-09T00:27:30.524Z,3.10
2022-08-09T00:31:30.238Z,3.40
2022-08-09T00:34:52.954Z,2.80
2022-08-09T00:38:21.594Z,3.20
2022-08-09T00:44:19.481Z,3.30
2022-08-09T00:45:38.719Z,3.20
2022-08-09T00:49:20.718Z,3.50
2022-08-09T00:52:50.372Z,3.30
2022-08-09T00:56:20.513Z,3.60
2022-08-09T00:59:52.395Z,3.50
2022-08-09T01:03:28.538Z,3.70
2022-08-09T01:07:01.631Z,4.30
2022-08-09T01:10:36.636Z,3.90
2022-08-09T01:14:11.794Z,4.80
2022-08-09T01:17:47.522Z,3.40
2022-08-09T01:21:24.815Z,3.50
2022-08-09T01:25:12.366Z,3.30
2022-08-09T01:28:45.636Z,3.50
2022-08-09T01:32:31.927Z,3.70
2022-08-09T01:36:17.205Z,3.80
2022-08-09T01:39:49.291Z,3.00
2022-08-09T01:43:19.239Z,3.50
2022-08-09T01:46:53.166Z,3.70
2022-08-09T01:50:29.946Z,3.80
2022-08-09T01:54:07.269Z,3.40
2022-08-09T01:57:45.911Z,3.40
2022-08-09T02:01:20.282Z,3.60
2022-08-09T02:05:02.738Z,4.00
2022-08-09T02:08:57.602Z,4.20
2022-08-09T02:12:25.728Z,3.50
2022-08-09T02:15:56.747Z,3.80
2022-08-09T02:19:24.904Z,4.60
2022-08-09T02:23:12.181Z,4.10
2022-08-09T02:26:42.664Z,4.30
2022-08-09T02:30:12.630Z,4.00
2022-08-09T02:34:06.812Z,3.90
2022-08-09T02:37:38.529Z,3.50
2022-08-09T02:41:16.385Z,3.80
2022-08-09T02:44:49.144Z,3.50
2022-08-09T02:48:19.432Z,3.70
2022-08-09T02:52:03.736Z,3.60
2022-08-09T02:55:53.765Z,3.50
2022-08-09T02:59:26.507Z,3.50
2022-08-09T03:03:08.562Z,3.20
2022-08-09T03:06:41.553Z,3.40
2022-08-09T03:10:15.499Z,3.80
2022-08-09T03:13:59.254Z,4.00
2022-08-09T03:17:28.218Z,3.90
2022-08-09T03:20:58.242Z,4.10
2022-08-09T03:24:31.566Z,3.90
2022-08-09T03:28:15.920Z,4.90
2022-08-09T03:31:59.801Z,4.10
2022-08-09T03:35:44.163Z,4.10
2022-08-09T03:39:16.562Z,4.10
2022-08-09T03:42:45.028Z,4.30
2022-08-09T03:46:27.116Z,4.50
2022-08-09T03:49:58.879Z,4.20
2022-08-09T03:53:32.286Z,4.20
2022-08-09T03:57:18.389Z,4.10
2022-08-09T04:00:53.134Z,4.30
2022-08-09T04:04:24.625Z,3.90
2022-08-09T04:07:57.139Z,4.00
2022-08-09T04:11:26.773Z,3.60
2022-08-09T04:15:01.830Z,4.40
2022-08-09T04:18:32.777Z,3.80
2022-08-09T04:22:02.772Z,4.10
2022-08-09T04:25:30.273Z,4.00
2022-08-09T04:28:58.346Z,4.00
2022-08-09T04:32:33.767Z,4.90
2022-08-09T04:36:04.738Z,4.20
2022-08-09T04:39:40.582Z,5.10
2022-08-09T04:43:08.105Z,5.60
2022-08-09T04:46:37.338Z,5.30
2022-08-09T04:50:22.973Z,7.50
2022-08-09T04:53:59.300Z,8.20
2022-08-09T04:57:27.232Z,8.30
2022-08-09T05:01:16.243Z,8.70
2022-08-09T05:04:47.395Z,9.00
2022-08-09T05:08:15.208Z,7.80
2022-08-09T05:11:43.532Z,6.40
2022-08-09T05:15:38.541Z,5.10
2022-08-09T05:19:00.510Z,4.80
2022-08-09T05:22:54.222Z,4.30
2022-08-09T05:26:26.533Z,5.00
2022-08-09T05:30:03.863Z,4.40
2022-08-09T05:33:32.794Z,3.90
2022-08-09T05:37:01.773Z,3.80
2022-08-09T05:40:32.336Z,4.50
2022-08-09T05:43:59.555Z,4.20
2022-08-09T05:47:30.346Z,3.40
2022-08-09T05:51:29.783Z,3.90
2022-08-09T05:54:49.222Z,3.30
2022-08-09T05:58:18.390Z,3.90
2022-08-09T06:01:45.631Z,3.80
2022-08-09T06:05:16.307Z,3.30
2022-08-09T06:08:43.529Z,3.30
2022-08-09T06:12:19.816Z,3.20
2022-08-09T06:15:51.484Z,3.70
2022-08-09T06:19:23.031Z,3.00
2022-08-09T06:22:53.844Z,3.70
2022-08-09T06:26:28.635Z,3.90
2022-08-09T06:30:08.726Z,3.90
2022-08-09T06:33:42.177Z,3.40
2022-08-09T06:37:23.796Z,4.00
2022-08-09T06:40:59.213Z,3.20
2022-08-09T06:44:30.693Z,3.40
2022-08-09T06:48:01.529Z,3.50
2022-08-09T06:51:32.117Z,3.70
2022-08-09T06:55:00.701Z,3.30
2022-08-09T07:00:46.777Z,3.10
2022-08-09T07:02:30.802Z,3.50
2022-08-09T07:06:09.486Z,3.80
2022-08-09T07:09:55.252Z,3.80
2022-08-09T07:13:30.395Z,3.60
2022-08-09T07:16:58.605Z,4.20
2022-08-09T07:20:29.690Z,3.30
2022-08-09T07:24:00.784Z,3.70
2022-08-09T07:27:42.624Z,4.00
2022-08-09T07:31:10.893Z,4.20
2022-08-09T07:34:45.696Z,3.50
2022-08-09T07:38:17.356Z,3.50
2022-08-09T07:41:52.897Z,3.80
2022-08-09T07:45:38.114Z,4.00
2022-08-09T07:49:19.791Z,3.70
2022-08-09T07:52:48.996Z,3.40
2022-08-09T07:56:27.232Z,3.30
2022-08-09T08:00:02.747Z,3.80
2022-08-09T08:03:40.401Z,3.60
2022-08-09T08:07:57.278Z,3.40
2022-08-09T08:11:15.375Z,3.70
2022-08-09T08:14:48.023Z,3.40
2022-08-09T08:18:18.259Z,4.10
2022-08-09T08:21:52.617Z,3.90
2022-08-09T08:25:21.002Z,3.70
2022-08-09T08:28:50.900Z,3.50
2022-08-09T08:32:29.230Z,3.60
2022-08-09T08:36:03.532Z,3.80
2022-08-09T08:39:43.698Z,4.00
2022-08-09T08:43:13.898Z,3.50
2022-08-09T08:46:59.750Z,3.70
2022-08-09T08:50:34.227Z,3.90
2022-08-09T08:54:29.906Z,3.80
2022-08-09T08:58:01.570Z,3.50
2022-08-09T09:01:35.661Z,3.70
2022-08-09T09:05:57.600Z,3.90
2022-08-09T09:09:21.096Z,3.20
2022-08-09T09:13:09.296Z,3.60
2022-08-09T09:16:39.011Z,3.20
2022-08-09T09:20:16.208Z,3.70
2022-08-09T09:23:58.125Z,3.50
2022-08-09T09:28:06.150Z,3.40
2022-08-09T09:32:03.651Z,3.40
2022-08-09T09:35:15.851Z,3.20
2022-08-09T09:38:51.123Z,2.80
2022-08-09T09:42:28.342Z,2.20
2022-08-09T09:46:41.768Z,2.40
2022-08-09T09:50:14.497Z,1.90
2022-08-09T09:54:01.193Z,1.30
2022-08-09T09:58:03.390Z,1.90
2022-08-09T10:01:30.875Z,1.60
2022-08-09T10:05:15.037Z,1.70
2022-08-09T10:09:03.175Z,2.30
2022-08-09T10:12:57.433Z,2.50
2022-08-09T10:16:57.223Z,1.80
2022-08-09T10:20:35.631Z,1.80
2022-08-09T10:24:16.090Z,2.20
2022-08-09T10:27:56.851Z,1.60
2022-08-09T10:32:27.837Z,2.30
2022-08-09T10:35:14.805Z,2.10
2022-08-09T10:38:55.920Z,1.70
2022-08-09T10:42:29.705Z,1.90
2022-08-09T10:46:03.242Z,1.80
2022-08-09T10:49:51.720Z,1.50
2022-08-09T10:53:54.520Z,2.00
2022-08-09T10:57:23.769Z,1.60
2022-08-09T11:03:01.742Z,2.00
2022-08-09T11:04:55.576Z,2.40
2022-08-09T11:08:47.702Z,1.90
2022-08-09T11:12:20.218Z,1.60
2022-08-09T11:16:04.503Z,1.60
2022-08-09T11:20:12.026Z,1.30
2022-08-09T11:24:06.146Z,1.80
2022-08-09T11:28:05.583Z,1.50
2022-08-09T11:31:57.399Z,1.40
2022-08-09T11:35:49.630Z,1.70
2022-08-09T11:39:19.098Z,1.90
2022-08-09T11:42:53.055Z,1.50
2022-08-09T11:46:33.002Z,1.70
2022-08-09T11:50:56.228Z,1.50
2022-08-09T11:54:28.483Z,1.30
2022-08-09T11:58:06.094Z,1.50
2022-08-09T12:02:16.076Z,1.50
2022-08-09T12:05:37.988Z,1.50
2022-08-09T12:09:19.707Z,1.40
2022-08-09T12:12:52.758Z,1.70
2022-08-09T12:16:30.721Z,1.40
2022-08-09T12:20:21.853Z,1.40
2022-08-09T12:24:09.134Z,1.60
2022-08-09T12:29:15.213Z,1.40
2022-08-09T12:31:31.130Z,1.60
2022-08-09T12:35:22.276Z,1.40
2022-08-09T12:38:51.803Z,1.20
2022-08-09T12:42:22.963Z,1.50
2022-08-09T12:46:00.106Z,1.50
2022-08-09T12:49:31.095Z,1.50
2022-08-09T12:53:18.392Z,1.90
2022-08-09T12:56:56.770Z,1.50
2022-08-09T13:00:30.514Z,1.50
2022-08-09T13:07:50.666Z,1.30
2022-08-09T13:11:30.424Z,1.60
2022-08-09T13:15:11.317Z,1.50
2022-08-09T13:18:53.861Z,1.50
2022-08-09T13:22:37.218Z,1.30
2022-08-09T13:26:36.976Z,1.80
2022-08-09T13:30:50.763Z,1.50
2022-08-09T13:34:00.242Z,1.50
2022-08-09T13:37:52.176Z,1.40
2022-08-09T13:41:59.138Z,1.60
2022-08-09T13:45:21.161Z,1.60
2022-08-09T13:48:50.781Z,1.30
2022-08-09T13:52:22.506Z,1.80
2022-08-09T13:55:53.706Z,2.20
2022-08-09T13:59:25.373Z,1.70
2022-08-09T14:03:57.771Z,1.40
2022-08-09T14:06:54.926Z,1.60
2022-08-09T14:10:37.596Z,1.70
2022-08-09T14:14:26.142Z,1.90
2022-08-09T14:18:16.610Z,1.40
2022-08-09T14:21:48.333Z,2.00
2022-08-09T14:25:19.406Z,1.80
2022-08-09T14:28:53.324Z,1.50
2022-08-09T14:32:28.717Z,1.40
2022-08-09T14:35:59.318Z,2.30
2022-08-09T14:39:50.768Z,2.00
2022-08-09T14:43:19.084Z,1.90
2022-08-09T14:47:01.474Z,1.80
2022-08-09T14:50:36.877Z,1.60
2022-08-09T14:54:04.998Z,1.80
2022-08-09T14:57:43.123Z,2.00
2022-08-09T15:01:11.449Z,1.90
2022-08-09T15:04:40.552Z,2.20
2022-08-09T15:08:10.291Z,2.50
2022-08-09T15:11:38.505Z,2.40
2022-08-09T15:15:08.937Z,2.80
2022-08-09T15:18:37.680Z,2.30
2022-08-09T15:22:06.515Z,2.30
2022-08-09T15:25:40.788Z,2.20
2022-08-09T15:29:09.727Z,2.70
2022-08-09T15:32:59.352Z,2.30
2022-08-09T15:36:31.410Z,2.50
2022-08-09T15:39:58.901Z,2.70
2022-08-09T15:43:29.919Z,2.20
2022-08-09T15:47:05.193Z,2.60
2022-08-09T15:50:32.724Z,2.50
2022-08-09T15:54:03.927Z,2.30
2022-08-09T15:57:44.329Z,2.50
2022-08-09T16:04:46.488Z,2.20
2022-08-09T16:08:30.599Z,1.80
2022-08-09T16:11:59.971Z,2.00
2022-08-09T16:16:04.562Z,2.20
2022-08-09T16:19:20.650Z,2.20
2022-08-09T16:22:52.627Z,1.90
2022-08-09T16:26:35.273Z,2.00
2022-08-09T16:30:06.798Z,2.30
2022-08-09T16:33:38.783Z,2.20
2022-08-09T16:37:08.134Z,1.90
2022-08-09T16:40:41.818Z,2.10
2022-08-09T16:44:11.186Z,1.80
2022-08-09T16:48:38.471Z,1.40
2022-08-09T16:51:29.750Z,1.90
2022-08-09T16:54:57.347Z,2.10
2022-08-09T16:58:26.262Z,2.50
2022-08-09T17:01:55.145Z,2.90
2022-08-09T17:06:08.093Z,2.10
2022-08-09T17:09:45.764Z,1.90
2022-08-09T17:13:03.526Z,1.60
2022-08-09T17:16:38.236Z,1.70
2022-08-09T17:20:29.826Z,1.80
2022-08-09T17:24:21.066Z,2.20
2022-08-09T17:27:49.608Z,2.10
2022-08-09T17:31:22.335Z,2.20
2022-08-09T17:35:10.424Z,2.60
2022-08-09T17:38:39.547Z,3.10
2022-08-09T17:42:13.577Z,3.00
2022-08-09T17:46:02.606Z,2.70
2022-08-09T17:49:33.680Z,2.30
2022-08-09T17:53:02.524Z,2.10
2022-08-09T17:56:35.990Z,2.50
2022-08-09T18:00:05.787Z,2.30
2022-08-09T18:03:40.666Z,2.50
2022-08-09T18:07:09.524Z,2.10
2022-08-09T18:11:02.210Z,2.30
2022-08-09T18:14:32.387Z,2.60
2022-08-09T18:18:08.170Z,2.20
2022-08-09T18:21:41.530Z,2.50
2022-08-09T18:25:14.461Z,2.30
2022-08-09T18:30:40.346Z,2.50
2022-08-09T18:32:39.442Z,2.50
2022-08-09T18:36:14.357Z,3.10
2022-08-09T18:39:57.681Z,3.00
2022-08-09T18:43:27.085Z,3.00
2022-08-09T18:47:03.366Z,3.50
2022-08-09T18:50:34.902Z,3.00
2022-08-09T18:54:16.529Z,3.00
2022-08-09T18:57:49.512Z,3.30
2022-08-09T19:01:26.293Z,3.80
2022-08-09T19:05:04.279Z,3.80
2022-08-09T19:08:55.330Z,3.50
2022-08-09T19:12:37.282Z,3.60
2022-08-09T19:16:09.754Z,3.60
2022-08-09T19:19:52.325Z,3.70
2022-08-09T19:24:31.573Z,3.60
2022-08-09T19:27:34.141Z,3.70
2022-08-09T19:31:07.760Z,3.40
2022-08-09T19:34:49.619Z,4.00
2022-08-09T19:38:25.532Z,3.80
2022-08-09T19:41:59.482Z,3.90
2022-08-09T19:45:40.186Z,3.60
2022-08-09T19:53:06.218Z,3.30
2022-08-09T19:56:44.558Z,3.90
2022-08-09T20:00:21.400Z,3.10
2022-08-09T20:04:10.848Z,2.90
2022-08-09T20:07:58.742Z,3.20
2022-08-09T20:11:42.892Z,2.90
2022-08-09T20:16:35.774Z,2.90
2022-08-09T20:19:47.491Z,2.90
2022-08-09T20:26:34.418Z,2.60
2022-08-09T20:30:07.717Z,2.40
2022-08-09T20:33:52.493Z,2.50
2022-08-09T20:38:23.902Z,2.50
2022-08-09T20:41:38.826Z,2.00
2022-08-09T20:46:00.077Z,2.60
2022-08-09T20:49:15.874Z,2.40
2022-08-09T20:52:48.978Z,2.30
2022-08-09T20:56:26.343Z,2.30
2022-08-09T21:00:30.778Z,2.40
2022-08-09T21:04:08.065Z,2.50
2022-08-09T21:07:44.999Z,2.20
2022-08-09T21:19:01.454Z,2.20
2022-08-09T21:22:38.604Z,2.80
2022-08-09T21:26:08.866Z,2.50
2022-08-09T21:29:49.500Z,2.10
2022-08-09T21:33:19.641Z,2.30
2022-08-09T21:36:55.839Z,2.40
2022-08-09T21:40:30.712Z,2.80
2022-08-09T21:44:02.875Z,2.40
2022-08-09T21:47:35.193Z,3.20
2022-08-09T21:51:13.459Z,2.90
2022-08-09T21:54:49.697Z,2.70
2022-08-09T21:58:31.106Z,3.40
2022-08-09T22:02:01.039Z,3.20
2022-08-09T22:05:35.552Z,3.10
2022-08-09T22:09:05.962Z,2.70
2022-08-09T22:12:40.710Z,2.80
2022-08-09T22:16:18.016Z,2.90
2022-08-09T22:19:58.589Z,3.20
2022-08-09T22:23:35.566Z,3.10
2022-08-09T22:27:18.785Z,3.50
2022-08-09T22:30:48.810Z,3.20
2022-08-09T22:34:16.905Z,3.00
2022-08-09T22:37:48.219Z,2.50
2022-08-09T22:41:34.845Z,3.20
2022-08-09T22:48:12.675Z,3.10
2022-08-09T22:48:50.672Z,3.00
2022-08-09T22:52:19.741Z,2.80
2022-08-09T22:56:30.604Z,2.90
2022-08-09T22:59:58.289Z,3.20
2022-08-09T23:04:02.371Z,3.50
2022-08-09T23:08:09.425Z,3.10
2022-08-09T23:11:17.357Z,2.80
2022-08-09T23:14:46.510Z,3.30
2022-08-09T23:18:14.337Z,3.20
2022-08-09T23:21:43.021Z,3.80
2022-08-09T23:25:12.152Z,3.30
2022-08-09T23:28:40.118Z,4.00
2022-08-09T23:32:08.047Z,3.40
2022-08-09T23:36:07.032Z,3.50
2022-08-09T23:39:23.047Z,3.40
2022-08-09T23:42:51.982Z,3.10
2022-08-09T23:46:19.348Z,3.70
2022-08-09T23:49:48.410Z,3.70
2022-08-09T23:53:17.245Z,3.30
2022-08-09T23:56:54.043Z,3.50
